sensor_id;sensor_type;location;lat;lon;timestamp;pressure;altitude;pressure_sealevel;temperature;humidity
3524;BME280;1776;53.330;11.498;2023-02-19T00:01:34;20865.81;;;-147.39;82.08
3524;BME280;1776;53.330;11.498;2023-02-19T00:04:05;20865.81;;;-147.39;82.23
3524;BME280;1776;53.330;11.498;2023-02-19T00:06:33;20910.50;;;-147.39;82.31
3524;BME280;1776;53.330;11.498;2023-02-19T00:08:59;20912.53;;;-147.39;82.12
3524;BME280;1776;53.330;11.498;2023-02-19T00:11:27;20875.97;;;-147.39;81.79
3524;BME280;1776;53.330;11.498;2023-02-19T00:13:54;20880.03;;;-147.39;81.93
3524;BME280;1776;53.330;11.498;2023-02-19T00:16:25;20902.38;;;-147.39;82.03
3524;BME280;1776;53.330;11.498;2023-02-19T00:18:52;20884.09;;;-147.39;81.79
3524;BME280;1776;53.330;11.498;2023-02-19T00:21:18;20908.47;;;-147.39;81.58
3524;BME280;1776;53.330;11.498;2023-02-19T00:23:48;20888.16;;;-147.39;81.68
3524;BME280;1776;53.330;11.498;2023-02-19T00:26:13;20912.53;;;-147.39;81.58
3524;BME280;1776;53.330;11.498;2023-02-19T00:28:38;20875.97;;;-147.39;81.23
3524;BME280;1776;53.330;11.498;2023-02-19T00:31:09;20861.75;;;-147.39;82.10
3524;BME280;1776;53.330;11.498;2023-02-19T00:33:36;20845.50;;;-147.39;82.34
3524;BME280;1776;53.330;11.498;2023-02-19T00:36:03;20833.31;;;-147.39;82.94
3524;BME280;1776;53.330;11.498;2023-02-19T00:38:29;20827.22;;;-147.39;82.68
3524;BME280;1776;53.330;11.498;2023-02-19T00:40:55;20843.47;;;-147.39;82.83
3524;BME280;1776;53.330;11.498;2023-02-19T00:43:20;20780.50;;;-147.39;82.92
3524;BME280;1776;53.330;11.498;2023-02-19T00:45:45;20770.34;;;-147.39;83.21
3524;BME280;1776;53.330;11.498;2023-02-19T00:48:11;20778.47;;;-147.39;83.21
3524;BME280;1776;53.330;11.498;2023-02-19T00:50:36;20802.84;;;-147.39;82.95
3524;BME280;1776;53.330;11.498;2023-02-19T00:53:01;20813.00;;;-147.39;82.78
3524;BME280;1776;53.330;11.498;2023-02-19T00:55:26;20808.94;;;-147.39;82.64
3524;BME280;1776;53.330;11.498;2023-02-19T00:57:52;20857.69;;;-147.39;82.50
3524;BME280;1776;53.330;11.498;2023-02-19T01:00:17;20851.59;;;-147.39;82.27
3524;BME280;1776;53.330;11.498;2023-02-19T01:02:42;20859.72;;;-147.39;82.66
3524;BME280;1776;53.330;11.498;2023-02-19T01:05:08;20867.84;;;-147.39;82.76
3524;BME280;1776;53.330;11.498;2023-02-19T01:07:37;20804.88;;;-147.39;83.00
3524;BME280;1776;53.330;11.498;2023-02-19T01:10:03;20780.50;;;-147.39;83.10
3524;BME280;1776;53.330;11.498;2023-02-19T01:12:28;20792.69;;;-147.39;83.14
3524;BME280;1776;53.330;11.498;2023-02-19T01:14:54;20776.44;;;-147.39;83.43
3524;BME280;1776;53.330;11.498;2023-02-19T01:17:20;20790.66;;;-147.39;82.83
3524;BME280;1776;53.330;11.498;2023-02-19T01:19:45;20146.69;;;-147.39;82.72
3524;BME280;1776;53.330;11.498;2023-02-19T01:22:11;20837.38;;;-147.39;82.85
3524;BME280;1776;53.330;11.498;2023-02-19T01:24:36;20800.81;;;-147.39;82.79
3524;BME280;1776;53.330;11.498;2023-02-19T01:27:02;20813.00;;;-147.39;82.54
3524;BME280;1776;53.330;11.498;2023-02-19T01:29:27;20865.81;;;-147.39;82.32
3524;BME280;1776;53.330;11.498;2023-02-19T01:31:52;20839.41;;;-147.39;81.79
3524;BME280;1776;53.330;11.498;2023-02-19T01:34:17;20847.53;;;-147.39;81.66
3524;BME280;1776;53.330;11.498;2023-02-19T01:36:43;20888.16;;;-147.39;81.70
3524;BME280;1776;53.330;11.498;2023-02-19T01:39:09;20873.94;;;-147.39;81.77
3524;BME280;1776;53.330;11.498;2023-02-19T01:41:38;20670.78;;;-147.39;81.60
3524;BME280;1776;53.330;11.498;2023-02-19T01:44:05;20857.69;;;-147.39;81.68
3524;BME280;1776;53.330;11.498;2023-02-19T01:46:37;20869.88;;;-147.39;81.75
3524;BME280;1776;53.330;11.498;2023-02-19T01:49:09;20882.06;;;-147.39;81.46
3524;BME280;1776;53.330;11.498;2023-02-19T01:51:39;20871.91;;;-147.39;81.99
3524;BME280;1776;53.330;11.498;2023-02-19T01:54:07;20888.16;;;-147.39;82.01
3524;BME280;1776;53.330;11.498;2023-02-19T01:56:37;20884.09;;;-147.39;82.31
3524;BME280;1776;53.330;11.498;2023-02-19T01:59:05;20839.41;;;-147.39;82.37
3524;BME280;1776;53.330;11.498;2023-02-19T02:01:31;20806.91;;;-147.39;82.56
3524;BME280;1776;53.330;11.498;2023-02-19T02:03:57;20790.66;;;-147.39;82.73
3524;BME280;1776;53.330;11.498;2023-02-19T02:06:24;20786.59;;;-147.39;82.46
3524;BME280;1776;53.330;11.498;2023-02-19T02:08:54;20837.38;;;-147.39;82.47
3524;BME280;1776;53.330;11.498;2023-02-19T02:11:41;20802.84;;;-147.39;82.77
3524;BME280;1776;53.330;11.498;2023-02-19T02:14:08;20790.66;;;-147.39;82.85
3524;BME280;1776;53.330;11.498;2023-02-19T02:20:33;20780.50;;;-147.39;83.36
3524;BME280;1776;53.330;11.498;2023-02-19T02:31:40;20768.31;;;-147.39;82.77
3524;BME280;1776;53.330;11.498;2023-02-19T02:34:16;20772.38;;;-147.39;82.60
3524;BME280;1776;53.330;11.498;2023-02-19T02:36:46;20829.25;;;-147.39;82.34
3524;BME280;1776;53.330;11.498;2023-02-19T02:39:16;20825.19;;;-147.39;82.46
3524;BME280;1776;53.330;11.498;2023-02-19T02:41:47;20849.56;;;-147.39;82.45
3524;BME280;1776;53.330;11.498;2023-02-19T02:44:13;20808.94;;;-147.39;82.17
3524;BME280;1776;53.330;11.498;2023-02-19T02:46:41;20841.44;;;-147.39;82.30
3524;BME280;1776;53.330;11.498;2023-02-19T02:49:16;20857.69;;;-147.39;81.61
3524;BME280;1776;53.330;11.498;2023-02-19T02:51:46;20827.22;;;-147.39;81.60
3524;BME280;1776;53.330;11.498;2023-02-19T02:54:25;20983.66;;;-147.39;81.46
3524;BME280;1776;53.330;11.498;2023-02-19T02:57:12;20658.59;;;-147.39;81.54
3524;BME280;1776;53.330;11.498;2023-02-19T02:59:39;20861.75;;;-147.39;81.64
3524;BME280;1776;53.330;11.498;2023-02-19T03:02:10;20900.34;;;-147.39;81.35
3524;BME280;1776;53.330;11.498;2023-02-19T03:05:02;20853.63;;;-147.39;81.25
3524;BME280;1776;53.330;11.498;2023-02-19T03:07:57;20878.00;;;-147.39;81.08
3524;BME280;1776;53.330;11.498;2023-02-19T03:11:00;20916.59;;;-147.39;81.08
3524;BME280;1776;53.330;11.498;2023-02-19T03:13:24;20855.66;;;-147.39;80.96
3524;BME280;1776;53.330;11.498;2023-02-19T03:16:17;20906.44;;;-147.39;80.87
3524;BME280;1776;53.330;11.498;2023-02-19T03:19:03;20892.22;;;-147.39;80.80
3524;BME280;1776;53.330;11.498;2023-02-19T03:22:07;20900.34;;;-147.39;80.83
3524;BME280;1776;53.330;11.498;2023-02-19T03:24:46;20924.72;;;-147.39;80.93
3524;BME280;1776;53.330;11.498;2023-02-19T03:27:33;20162.94;;;-147.39;80.91
3524;BME280;1776;53.330;11.498;2023-02-19T03:30:04;20922.69;;;-147.39;80.47
3524;BME280;1776;53.330;11.498;2023-02-19T03:32:33;20949.13;;;-147.39;80.33
3524;BME280;1776;53.330;11.498;2023-02-19T03:35:05;20963.34;;;-147.39;80.12
3524;BME280;1776;53.330;11.498;2023-02-19T03:37:35;20924.72;;;-147.39;79.93
3524;BME280;1776;53.330;11.498;2023-02-19T03:40:02;20999.91;;;-147.39;79.39
3524;BME280;1776;53.330;11.498;2023-02-19T03:42:37;21034.44;;;-147.39;79.30
3524;BME280;1776;53.330;11.498;2023-02-19T03:45:13;20963.34;;;-147.39;79.49
3524;BME280;1776;53.330;11.498;2023-02-19T03:47:46;21048.66;;;-147.39;79.06
3524;BME280;1776;53.330;11.498;2023-02-19T03:53:52;21020.22;;;-147.39;79.35
3524;BME280;1776;53.330;11.498;2023-02-19T03:56:31;21083.19;;;-147.39;79.03
3524;BME280;1776;53.330;11.498;2023-02-19T04:01:49;21040.53;;;-147.39;78.98
3524;BME280;1776;53.330;11.498;2023-02-19T04:04:30;21056.78;;;-147.39;78.96
3524;BME280;1776;53.330;11.498;2023-02-19T04:06:57;21030.38;;;-147.39;79.59
3524;BME280;1776;53.330;11.498;2023-02-19T04:09:25;21028.34;;;-147.39;79.88
3524;BME280;1776;53.330;11.498;2023-02-19T04:11:53;21034.44;;;-147.39;79.72
3524;BME280;1776;53.330;11.498;2023-02-19T04:14:27;21006.00;;;-147.39;79.74
3524;BME280;1776;53.330;11.498;2023-02-19T04:17:00;21038.50;;;-147.39;80.15
3524;BME280;1776;53.330;11.498;2023-02-19T04:19:29;20989.75;;;-147.39;80.11
3524;BME280;1776;53.330;11.498;2023-02-19T04:21:57;21075.06;;;-147.39;80.40
3524;BME280;1776;53.330;11.498;2023-02-19T04:24:32;20924.72;;;-147.39;80.99
3524;BME280;1776;53.330;11.498;2023-02-19T04:26:59;20981.63;;;-147.39;81.03
3524;BME280;1776;53.330;11.498;2023-02-19T04:29:24;20943.03;;;-147.39;80.57
3524;BME280;1776;53.330;11.498;2023-02-19T04:31:49;20945.06;;;-147.39;80.87
3524;BME280;1776;53.330;11.498;2023-02-19T04:34:15;20953.19;;;-147.39;80.76
3524;BME280;1776;53.330;11.498;2023-02-19T04:36:40;20947.09;;;-147.39;80.85
3524;BME280;1776;53.330;11.498;2023-02-19T04:39:05;20928.78;;;-147.39;80.66
3524;BME280;1776;53.330;11.498;2023-02-19T04:41:32;21034.44;;;-147.39;80.41
3524;BME280;1776;53.330;11.498;2023-02-19T04:43:57;20987.72;;;-147.39;80.27
3524;BME280;1776;53.330;11.498;2023-02-19T04:46:22;20977.56;;;-147.39;80.54
3524;BME280;1776;53.330;11.498;2023-02-19T04:48:48;20979.59;;;-147.39;80.30
3524;BME280;1776;53.330;11.498;2023-02-19T04:51:13;20936.91;;;-147.39;80.49
3524;BME280;1776;53.330;11.498;2023-02-19T04:53:38;20957.25;;;-147.39;80.71
3524;BME280;1776;53.330;11.498;2023-02-19T04:56:06;20969.44;;;-147.39;80.77
3524;BME280;1776;53.330;11.498;2023-02-19T04:58:31;20971.47;;;-147.39;80.81
3524;BME280;1776;53.330;11.498;2023-02-19T05:00:56;20955.22;;;-147.39;80.76
3524;BME280;1776;53.330;11.498;2023-02-19T05:03:21;20634.22;;;-147.39;80.31
3524;BME280;1776;53.330;11.498;2023-02-19T05:05:47;20967.41;;;-147.39;80.80
3524;BME280;1776;53.330;11.498;2023-02-19T05:08:12;20928.78;;;-147.39;80.72
3524;BME280;1776;53.330;11.498;2023-02-19T05:10:37;20941.00;;;-147.39;80.42
3524;BME280;1776;53.330;11.498;2023-02-19T05:13:03;20936.91;;;-147.39;80.66
3524;BME280;1776;53.330;11.498;2023-02-19T05:15:28;20969.44;;;-147.39;80.31
3524;BME280;1776;53.330;11.498;2023-02-19T05:17:53;20967.41;;;-147.39;80.45
3524;BME280;1776;53.330;11.498;2023-02-19T05:20:18;20930.81;;;-147.39;80.80
3524;BME280;1776;53.330;11.498;2023-02-19T05:22:46;20918.63;;;-147.39;80.86
3524;BME280;1776;53.330;11.498;2023-02-19T05:25:11;20936.91;;;-147.39;80.84
3524;BME280;1776;53.330;11.498;2023-02-19T05:27:36;20678.91;;;-147.39;80.84
3524;BME280;1776;53.330;11.498;2023-02-19T05:30:02;20981.63;;;-147.39;80.82
3524;BME280;1776;53.330;11.498;2023-02-19T05:32:28;20936.91;;;-147.39;80.83
3524;BME280;1776;53.330;11.498;2023-02-19T05:34:53;20955.22;;;-147.39;80.88
3524;BME280;1776;53.330;11.498;2023-02-19T05:37:18;20947.09;;;-147.39;80.80
3524;BME280;1776;53.330;11.498;2023-02-19T05:39:43;20943.03;;;-147.39;81.12
3524;BME280;1776;53.330;11.498;2023-02-19T05:42:09;20922.69;;;-147.39;80.97
3524;BME280;1776;53.330;11.498;2023-02-19T05:44:34;20918.63;;;-147.39;81.22
3524;BME280;1776;53.330;11.498;2023-02-19T05:46:59;20947.09;;;-147.39;81.05
3524;BME280;1776;53.330;11.498;2023-02-19T05:49:25;20959.28;;;-147.39;81.12
3524;BME280;1776;53.330;11.498;2023-02-19T05:51:50;20861.75;;;-147.39;81.12
3524;BME280;1776;53.330;11.498;2023-02-19T05:54:16;20922.69;;;-147.39;81.10
3524;BME280;1776;53.330;11.498;2023-02-19T05:56:41;20926.75;;;-147.39;81.15
3524;BME280;1776;53.330;11.498;2023-02-19T05:59:14;20930.81;;;-147.39;81.15
3524;BME280;1776;53.330;11.498;2023-02-19T06:01:40;20878.00;;;-147.39;81.51
3524;BME280;1776;53.330;11.498;2023-02-19T06:04:05;20932.84;;;-147.39;81.31
3524;BME280;1776;53.330;11.498;2023-02-19T06:06:30;20914.56;;;-147.39;81.28
3524;BME280;1776;53.330;11.498;2023-02-19T06:08:56;20912.53;;;-147.39;81.46
3524;BME280;1776;53.330;11.498;2023-02-19T06:11:22;20938.97;;;-147.39;81.40
3524;BME280;1776;53.330;11.498;2023-02-19T06:13:48;20977.56;;;-147.39;81.66
3524;BME280;1776;53.330;11.498;2023-02-19T06:16:14;20900.34;;;-147.39;81.77
3524;BME280;1776;53.330;11.498;2023-02-19T06:18:43;20922.69;;;-147.39;81.57
3524;BME280;1776;53.330;11.498;2023-02-19T06:21:10;20957.25;;;-147.39;81.60
3524;BME280;1776;53.330;11.498;2023-02-19T06:23:36;20908.47;;;-147.39;81.75
3524;BME280;1776;53.330;11.498;2023-02-19T06:26:13;20894.25;;;-147.39;81.73
3524;BME280;1776;53.330;11.498;2023-02-19T06:28:40;20894.25;;;-147.39;81.85
3524;BME280;1776;53.330;11.498;2023-02-19T06:31:07;20886.13;;;-147.39;81.75
3524;BME280;1776;53.330;11.498;2023-02-19T06:33:33;20904.41;;;-147.39;81.92
3524;BME280;1776;53.330;11.498;2023-02-19T06:36:03;20912.53;;;-147.39;81.74
3524;BME280;1776;53.330;11.498;2023-02-19T06:38:29;20882.06;;;-147.39;81.87
3524;BME280;1776;53.330;11.498;2023-02-19T06:40:59;20894.25;;;-147.39;82.02
3524;BME280;1776;53.330;11.498;2023-02-19T06:43:24;20890.19;;;-147.39;82.34
3524;BME280;1776;53.330;11.498;2023-02-19T06:45:49;20855.66;;;-147.39;82.10
3524;BME280;1776;53.330;11.498;2023-02-19T06:48:14;20971.47;;;-147.39;82.20
3524;BME280;1776;53.330;11.498;2023-02-19T06:50:40;20880.03;;;-147.39;82.26
3524;BME280;1776;53.330;11.498;2023-02-19T06:53:05;20888.16;;;-147.39;82.35
3524;BME280;1776;53.330;11.498;2023-02-19T06:55:30;20884.09;;;-147.39;82.37
3524;BME280;1776;53.330;11.498;2023-02-19T06:57:56;20841.44;;;-147.39;82.37
3524;BME280;1776;53.330;11.498;2023-02-19T07:00:21;20827.22;;;-147.39;82.10
3524;BME280;1776;53.330;11.498;2023-02-19T07:02:46;20894.25;;;-147.39;82.38
3524;BME280;1776;53.330;11.498;2023-02-19T07:05:12;20853.63;;;-147.39;82.28
3524;BME280;1776;53.330;11.498;2023-02-19T07:07:37;20900.34;;;-147.39;82.39
3524;BME280;1776;53.330;11.498;2023-02-19T07:10:03;20839.41;;;-147.39;82.38
3524;BME280;1776;53.330;11.498;2023-02-19T07:12:28;20839.41;;;-147.39;82.50
3524;BME280;1776;53.330;11.498;2023-02-19T07:14:53;20882.06;;;-147.39;82.34
3524;BME280;1776;53.330;11.498;2023-02-19T07:17:19;20845.50;;;-147.39;82.50
3524;BME280;1776;53.330;11.498;2023-02-19T07:19:44;20851.59;;;-147.39;82.80
3524;BME280;1776;53.330;11.498;2023-02-19T07:22:09;20849.56;;;-147.39;82.23
3524;BME280;1776;53.330;11.498;2023-02-19T07:24:35;20833.31;;;-147.39;82.75
3524;BME280;1776;53.330;11.498;2023-02-19T07:27:00;20825.19;;;-147.39;82.69
3524;BME280;1776;53.330;11.498;2023-02-19T07:29:25;20829.25;;;-147.39;82.54
3524;BME280;1776;53.330;11.498;2023-02-19T07:31:50;20865.81;;;-147.39;82.25
3524;BME280;1776;53.330;11.498;2023-02-19T07:34:16;20878.00;;;-147.39;82.41
3524;BME280;1776;53.330;11.498;2023-02-19T07:36:41;20912.53;;;-147.39;82.06
3524;BME280;1776;53.330;11.498;2023-02-19T07:39:06;20894.25;;;-147.39;82.02
3524;BME280;1776;53.330;11.498;2023-02-19T07:41:31;20896.28;;;-147.39;82.21
3524;BME280;1776;53.330;11.498;2023-02-19T07:43:57;20875.97;;;-147.39;81.93
3524;BME280;1776;53.330;11.498;2023-02-19T07:46:23;20896.28;;;-147.39;81.31
3524;BME280;1776;53.330;11.498;2023-02-19T07:48:48;20873.94;;;-147.39;81.31
3524;BME280;1776;53.330;11.498;2023-02-19T07:51:16;20906.44;;;-147.39;81.41
3524;BME280;1776;53.330;11.498;2023-02-19T07:53:47;20949.13;;;-147.39;81.64
3524;BME280;1776;53.330;11.498;2023-02-19T07:56:14;20865.81;;;-147.39;81.71
3524;BME280;1776;53.330;11.498;2023-02-19T07:58:40;20823.16;;;-147.39;81.76
3524;BME280;1776;53.330;11.498;2023-02-19T08:01:08;20865.81;;;-147.39;81.75
3524;BME280;1776;53.330;11.498;2023-02-19T08:03:35;20857.69;;;-147.39;81.89
3524;BME280;1776;53.330;11.498;2023-02-19T08:06:00;20906.44;;;-147.39;81.75
3524;BME280;1776;53.330;11.498;2023-02-19T08:08:25;20892.22;;;-147.39;81.44
3524;BME280;1776;53.330;11.498;2023-02-19T08:10:51;20869.88;;;-147.39;80.86
3524;BME280;1776;53.330;11.498;2023-02-19T08:13:34;20941.00;;;-147.39;80.43
3524;BME280;1776;53.330;11.498;2023-02-19T08:18:26;21018.19;;;-147.39;78.87
3524;BME280;1776;53.330;11.498;2023-02-19T08:20:53;21314.81;;;-147.39;75.14
3524;BME280;1776;53.330;11.498;2023-02-19T08:23:20;21711.03;;;-147.39;68.89
3524;BME280;1776;53.330;11.498;2023-02-19T08:25:46;22336.97;;;-147.39;64.07
3524;BME280;1776;53.330;11.498;2023-02-19T08:28:11;22540.19;;;-147.39;62.38
3524;BME280;1776;53.330;11.498;2023-02-19T08:30:38;22617.44;;;-147.39;62.74
3524;BME280;1776;53.330;11.498;2023-02-19T08:33:05;22662.16;;;-147.39;62.11
3524;BME280;1776;53.330;11.498;2023-02-19T08:35:31;22767.84;;;-147.39;60.71
3524;BME280;1776;53.330;11.498;2023-02-19T08:37:59;22944.69;;;-147.39;58.93
3524;BME280;1776;53.330;11.498;2023-02-19T08:40:25;22865.41;;;-147.39;60.84
3524;BME280;1776;53.330;11.498;2023-02-19T08:42:50;22735.31;;;-147.39;63.63
3524;BME280;1776;53.330;11.498;2023-02-19T08:45:16;22849.16;;;-147.39;62.08
3524;BME280;1776;53.330;11.498;2023-02-19T08:47:41;22932.47;;;-147.39;59.97
3524;BME280;1776;53.330;11.498;2023-02-19T08:50:07;22841.00;;;-147.39;61.82
3524;BME280;1776;53.330;11.498;2023-02-19T08:52:33;22948.75;;;-147.39;60.70
3524;BME280;1776;53.330;11.498;2023-02-19T08:54:59;23064.59;;;-147.39;58.59
3524;BME280;1776;53.330;11.498;2023-02-19T08:57:25;22969.06;;;-147.39;57.31
3524;BME280;1776;53.330;11.498;2023-02-19T08:59:50;23548.44;;;-147.39;53.89
3524;BME280;1776;53.330;11.498;2023-02-19T09:02:16;24064.84;;;-147.39;49.24
3524;BME280;1776;53.330;11.498;2023-02-19T09:04:41;24567.09;;;-147.39;46.08
3524;BME280;1776;53.330;11.498;2023-02-19T09:07:06;24506.09;;;-147.39;47.20
3524;BME280;1776;53.330;11.498;2023-02-19T09:09:36;24365.78;;;-147.39;49.07
3524;BME280;1776;53.330;11.498;2023-02-19T09:12:04;24430.84;;;-147.39;48.43
3524;BME280;1776;53.330;11.498;2023-02-19T09:14:31;24483.72;;;-147.39;48.29
3524;BME280;1776;53.330;11.498;2023-02-19T09:16:56;24467.44;;;-147.39;47.67
3524;BME280;1776;53.330;11.498;2023-02-19T09:19:22;24807.03;;;-147.39;44.08
3524;BME280;1776;53.330;11.498;2023-02-19T09:21:47;25028.72;;;-147.39;41.89
3524;BME280;1776;53.330;11.498;2023-02-19T09:24:12;24746.03;;;-147.39;45.75
3524;BME280;1776;53.330;11.498;2023-02-19T09:26:38;24782.66;;;-147.39;45.21
3524;BME280;1776;53.330;11.498;2023-02-19T09:29:03;24760.28;;;-147.39;45.11
3524;BME280;1776;53.330;11.498;2023-02-19T09:31:28;25045.00;;;-147.39;42.26
3524;BME280;1776;53.330;11.498;2023-02-19T09:33:54;25226.00;;;-147.39;40.67
3524;BME280;1776;53.330;11.498;2023-02-19T09:36:19;25319.56;;;-147.39;40.14
3524;BME280;1776;53.330;11.498;2023-02-19T09:38:44;25248.38;;;-147.39;40.76
3524;BME280;1776;53.330;11.498;2023-02-19T09:41:38;25287.00;;;-147.39;40.64
3524;BME280;1776;53.330;11.498;2023-02-19T09:44:04;25083.63;;;-147.39;42.50
3524;BME280;1776;53.330;11.498;2023-02-19T09:46:34;24986.00;;;-147.39;44.35
3524;BME280;1776;53.330;11.498;2023-02-19T09:49:26;24855.84;;;-147.39;45.42
3524;BME280;1776;53.330;11.498;2023-02-19T09:52:00;24851.78;;;-147.39;46.03
3524;BME280;1776;53.330;11.498;2023-02-19T09:54:29;24792.81;;;-147.39;46.53
3524;BME280;1776;53.330;11.498;2023-02-19T09:56:59;24705.38;;;-147.39;47.87
3524;BME280;1776;53.330;11.498;2023-02-19T09:59:28;24864.00;;;-147.39;45.32
3524;BME280;1776;53.330;11.498;2023-02-19T10:02:24;24687.06;;;-147.39;47.96
3524;BME280;1776;53.330;11.498;2023-02-19T10:04:52;24676.91;;;-147.39;48.29
3524;BME280;1776;53.330;11.498;2023-02-19T10:07:23;24695.19;;;-147.39;46.88
3524;BME280;1776;53.330;11.498;2023-02-19T10:09:55;24526.41;;;-147.39;48.72
3524;BME280;1776;53.330;11.498;2023-02-19T10:12:27;24548.78;;;-147.39;49.37
3524;BME280;1776;53.330;11.498;2023-02-19T10:14:59;24518.28;;;-147.39;49.15
3524;BME280;1776;53.330;11.498;2023-02-19T10:17:29;24463.38;;;-147.39;49.80
3524;BME280;1776;53.330;11.498;2023-02-19T10:19:56;24412.53;;;-147.39;50.43
3524;BME280;1776;53.330;11.498;2023-02-19T10:22:22;24392.22;;;-147.39;50.51
3524;BME280;1776;53.330;11.498;2023-02-19T10:24:51;24329.16;;;-147.39;50.83
3524;BME280;1776;53.330;11.498;2023-02-19T10:27:18;24314.94;;;-147.39;51.65
3524;BME280;1776;53.330;11.498;2023-02-19T10:29:45;24262.06;;;-147.39;53.04
3524;BME280;1776;53.330;11.498;2023-02-19T10:32:19;24227.50;;;-147.39;51.73
3524;BME280;1776;53.330;11.498;2023-02-19T10:34:47;24266.13;;;-147.39;52.45
3524;BME280;1776;53.330;11.498;2023-02-19T10:37:31;24321.03;;;-147.39;51.56
3524;BME280;1776;53.330;11.498;2023-02-19T10:39:56;24217.34;;;-147.39;51.01
3524;BME280;1776;53.330;11.498;2023-02-19T10:42:22;24272.25;;;-147.39;52.44
3524;BME280;1776;53.330;11.498;2023-02-19T10:44:59;24323.06;;;-147.39;52.57
3524;BME280;1776;53.330;11.498;2023-02-19T10:47:28;24314.94;;;-147.39;51.53
3524;BME280;1776;53.330;11.498;2023-02-19T10:49:58;24310.88;;;-147.39;50.34
3524;BME280;1776;53.330;11.498;2023-02-19T10:52:30;24276.31;;;-147.39;50.34
3524;BME280;1776;53.330;11.498;2023-02-19T10:55:19;24412.53;;;-147.39;51.20
3524;BME280;1776;53.330;11.498;2023-02-19T10:57:48;24304.78;;;-147.39;50.64
3524;BME280;1776;53.330;11.498;2023-02-19T11:02:40;24392.22;;;-147.39;48.59
3524;BME280;1776;53.330;11.498;2023-02-19T11:05:16;24373.91;;;-147.39;48.83
3524;BME280;1776;53.330;11.498;2023-02-19T11:07:55;24357.63;;;-147.39;48.07
3524;BME280;1776;53.330;11.498;2023-02-19T11:12:55;24333.25;;;-147.39;50.87
3524;BME280;1776;53.330;11.498;2023-02-19T11:15:25;24327.13;;;-147.39;50.44
3524;BME280;1776;53.330;11.498;2023-02-19T11:18:02;24483.72;;;-147.39;48.83
3524;BME280;1776;53.330;11.498;2023-02-19T11:20:28;24394.25;;;-147.39;47.74
3524;BME280;1776;53.330;11.498;2023-02-19T11:22:57;24353.56;;;-147.39;48.58
3524;BME280;1776;53.330;11.498;2023-02-19T11:25:24;24363.75;;;-147.39;48.87
3524;BME280;1776;53.330;11.498;2023-02-19T11:30:43;24438.97;;;-147.39;48.51
3524;BME280;1776;53.330;11.498;2023-02-19T11:35:41;24408.47;;;-147.39;47.82
3524;BME280;1776;53.330;11.498;2023-02-19T11:38:09;24463.38;;;-147.39;48.04
3524;BME280;1776;53.330;11.498;2023-02-19T11:43:23;24479.66;;;-147.39;44.92
3524;BME280;1776;53.330;11.498;2023-02-19T11:53:34;24479.66;;;-147.39;47.42
3524;BME280;1776;53.330;11.498;2023-02-19T11:56:17;24467.44;;;-147.39;46.27
3524;BME280;1776;53.330;11.498;2023-02-19T11:58:53;24471.50;;;-147.39;45.26
3524;BME280;1776;53.330;11.498;2023-02-19T12:01:42;24453.22;;;-147.39;47.08
3524;BME280;1776;53.330;11.498;2023-02-19T12:09:40;24449.16;;;-147.39;47.59
3524;BME280;1776;53.330;11.498;2023-02-19T12:12:25;24487.78;;;-147.39;48.15
3524;BME280;1776;53.330;11.498;2023-02-19T12:15:01;24402.38;;;-147.39;47.71
3524;BME280;1776;53.330;11.498;2023-02-19T12:17:52;24420.69;;;-147.39;49.48
3524;BME280;1776;53.330;11.498;2023-02-19T12:20:45;24477.63;;;-147.39;46.51
3524;BME280;1776;53.330;11.498;2023-02-19T12:34:43;24607.75;;;-147.39;45.17
3524;BME280;1776;53.330;11.498;2023-02-19T12:37:40;24624.03;;;-147.39;44.02
3524;BME280;1776;53.330;11.498;2023-02-19T12:40:16;24626.06;;;-147.39;45.41
3524;BME280;1776;53.330;11.498;2023-02-19T12:42:50;24638.25;;;-147.39;44.72
3524;BME280;1776;53.330;11.498;2023-02-19T12:48:32;24666.72;;;-147.39;42.73
3524;BME280;1776;53.330;11.498;2023-02-19T12:53:46;24646.41;;;-147.39;44.58
3524;BME280;1776;53.330;11.498;2023-02-19T12:57:01;24695.19;;;-147.39;42.48
3524;BME280;1776;53.330;11.498;2023-02-19T12:59:11;24723.66;;;-147.39;43.04
3524;BME280;1776;53.330;11.498;2023-02-19T13:01:47;24670.78;;;-147.39;42.26
3524;BME280;1776;53.330;11.498;2023-02-19T13:04:23;24445.06;;;-147.39;43.47
3524;BME280;1776;53.330;11.498;2023-02-19T13:09:28;24650.47;;;-147.39;43.15
3524;BME280;1776;53.330;11.498;2023-02-19T13:11:58;24613.84;;;-147.39;44.41
3524;BME280;1776;53.330;11.498;2023-02-19T13:14:33;24703.34;;;-147.39;43.13
3524;BME280;1776;53.330;11.498;2023-02-19T13:17:18;24678.94;;;-147.39;44.25
3524;BME280;1776;53.330;11.498;2023-02-19T13:19:47;24695.19;;;-147.39;42.86
3524;BME280;1776;53.330;11.498;2023-02-19T13:22:24;24652.50;;;-147.39;43.09
3524;BME280;1776;53.330;11.498;2023-02-19T13:25:13;24764.34;;;-147.39;42.75
3524;BME280;1776;53.330;11.498;2023-02-19T13:27:58;24721.63;;;-147.39;42.98
3524;BME280;1776;53.330;11.498;2023-02-19T13:32:59;24693.16;;;-147.39;42.45
3524;BME280;1776;53.330;11.498;2023-02-19T13:35:49;24674.88;;;-147.39;42.54
3524;BME280;1776;53.330;11.498;2023-02-19T13:38:18;24703.34;;;-147.39;43.36
3524;BME280;1776;53.330;11.498;2023-02-19T13:40:57;24729.78;;;-147.39;42.26
3524;BME280;1776;53.330;11.498;2023-02-19T13:43:27;24646.41;;;-147.39;43.32
3524;BME280;1776;53.330;11.498;2023-02-19T13:46:05;24748.06;;;-147.39;42.75
3524;BME280;1776;53.330;11.498;2023-02-19T13:48:36;24835.53;;;-147.39;41.55
3524;BME280;1776;53.330;11.498;2023-02-19T14:04:53;24790.78;;;-147.39;40.76
3524;BME280;1776;53.330;11.498;2023-02-19T14:07:32;24805.00;;;-147.39;41.30
3524;BME280;1776;53.330;11.498;2023-02-19T14:09:58;24843.66;;;-147.39;40.96
3524;BME280;1776;53.330;11.498;2023-02-19T14:12:34;24817.22;;;-147.39;40.46
3524;BME280;1776;53.330;11.498;2023-02-19T14:18:41;24829.41;;;-147.39;40.56
3524;BME280;1776;53.330;11.498;2023-02-19T14:21:35;24825.34;;;-147.39;40.03
3524;BME280;1776;53.330;11.498;2023-02-19T14:24:01;24796.88;;;-147.39;40.74
3524;BME280;1776;53.330;11.498;2023-02-19T14:26:30;24809.09;;;-147.39;40.92
3524;BME280;1776;53.330;11.498;2023-02-19T14:28:57;24813.16;;;-147.39;40.10
3524;BME280;1776;53.330;11.498;2023-02-19T14:31:27;24802.97;;;-147.39;39.97